Time;durP1;ratioP1;P1;durP2;ratioP2;P2;SDS_P1;SDS_P2;PMS_P1;PMS_P2;Temp;Humidity;BMP_temperature;BMP_pressure;BME280_temperature;BME280_humidity;BME280_pressure;Samples;Min_cycle;Max_cycle;Signal;HPM_P1;HPM_P2
2023/05/16 00:00:18;;;;;;;3.78;1.30;;;;;;;12.49;50.88;91740.38;4950490;28;20058;-76
2023/05/16 00:02:44;;;;;;;2.17;1.08;;;;;;;12.48;51.15;91725.72;4944514;28;20056;-76
2023/05/16 00:05:13;;;;;;;4.22;1.30;;;;;;;12.41;51.31;91726.19;4949909;28;20035;-76
2023/05/16 00:07:42;;;;;;;1.48;1.08;;;;;;;12.58;50.33;91727.97;4944546;28;20051;-76
2023/05/16 00:10:08;;;;;;;1.55;1.10;;;;;;;12.51;50.08;91727.69;4951333;28;20391;-76
2023/05/16 00:12:35;;;;;;;0.93;0.90;;;;;;;12.61;49.59;91716.84;4955906;29;20045;-76
2023/05/16 00:15:02;;;;;;;4.20;1.30;;;;;;;12.64;50.07;91725.94;4954953;29;20134;-76
2023/05/16 00:17:27;;;;;;;2.53;1.20;;;;;;;12.51;50.54;91714.56;4955793;29;20043;-76
2023/05/16 00:19:57;;;;;;;1.60;1.00;;;;;;;12.44;50.63;91711.66;4938924;29;20053;-76
2023/05/16 00:22:26;;;;;;;1.77;1.13;;;;;;;12.35;51.96;91713.56;4954954;29;20089;-76
2023/05/16 00:24:52;;;;;;;1.73;1.05;;;;;;;12.30;50.88;91717.13;4955558;28;20031;-76
2023/05/16 00:27:17;;;;;;;1.55;1.08;;;;;;;12.31;50.42;91705.53;4954973;29;20517;-76
2023/05/16 00:29:43;;;;;;;8.05;1.40;;;;;;;12.28;50.91;91706.94;4930352;29;20106;-76
2023/05/16 00:32:09;;;;;;;1.23;1.05;;;;;;;12.45;50.08;91697.44;4956321;29;20035;-76
2023/05/16 00:34:34;;;;;;;2.38;1.40;;;;;;;12.31;50.92;91684.53;4920813;29;20050;-76
2023/05/16 00:37:00;;;;;;;3.67;1.30;;;;;;;12.35;50.08;91689.94;4949139;29;20401;-76
2023/05/16 00:39:26;;;;;;;2.67;1.10;;;;;;;12.31;50.55;91691.66;4953327;29;20082;-76
2023/05/16 00:41:52;;;;;;;2.97;1.40;;;;;;;12.48;49.19;91686.34;4954010;29;20449;-76
2023/05/16 00:44:17;;;;;;;2.20;1.20;;;;;;;12.50;49.54;91678.91;4956013;28;20130;-76
2023/05/16 00:46:43;;;;;;;2.15;1.38;;;;;;;12.39;48.63;91675.13;4952359;29;20367;-77
2023/05/16 00:49:09;;;;;;;2.97;1.20;;;;;;;12.53;47.79;91667.78;4952561;29;20310;-77
2023/05/16 00:51:38;;;;;;;3.95;1.45;;;;;;;12.48;48.13;91681.09;4938096;29;20039;-76
2023/05/16 00:54:04;;;;;;;2.10;1.15;;;;;;;12.62;46.34;91668.50;4950233;28;20043;-76
2023/05/16 00:56:30;;;;;;;2.03;1.10;;;;;;;12.62;47.59;91668.50;4953720;29;20038;-76
2023/05/16 00:58:56;;;;;;;1.15;0.90;;;;;;;12.69;47.17;91668.75;4954947;29;20382;-76
2023/05/16 01:01:23;;;;;;;4.43;1.40;;;;;;;12.59;47.32;91663.88;4938855;29;20027;-76
2023/05/16 01:03:51;;;;;;;2.65;1.40;;;;;;;12.65;46.25;91660.00;4955070;28;20039;-76
2023/05/16 01:06:17;;;;;;;1.58;1.10;;;;;;;12.56;46.48;91669.75;4938208;29;20042;-76
2023/05/16 01:08:42;;;;;;;1.90;1.20;;;;;;;12.53;46.66;91662.53;4954689;29;20102;-76
2023/05/16 01:11:27;;;;;;;1.73;1.13;;;;;;;12.42;47.31;91653.47;4938374;29;20127;-76
2023/05/16 01:14:09;;;;;;;2.20;1.30;;;;;;;12.47;46.77;91659.31;4952967;28;20482;-76
2023/05/16 01:16:45;;;;;;;2.47;1.30;;;;;;;12.45;47.22;91652.81;4959465;28;20082;-76
2023/05/16 01:19:29;;;;;;;1.70;1.13;;;;;;;12.44;48.20;91652.06;4956993;28;20043;-76
2023/05/16 01:22:04;;;;;;;1.67;1.10;;;;;;;12.39;47.46;91656.75;4950758;28;20519;-76
2023/05/16 01:24:42;;;;;;;2.53;1.20;;;;;;;12.26;48.84;91642.75;4952002;28;20035;-76
2023/05/16 01:27:10;;;;;;;2.25;1.10;;;;;;;12.28;47.04;91643.97;4951139;28;20031;-77
2023/05/16 01:29:35;;;;;;;3.20;1.20;;;;;;;12.31;47.28;91647.03;4950914;28;20035;-76
2023/05/16 01:32:03;;;;;;;1.70;1.15;;;;;;;12.22;48.02;91655.72;4952281;28;20027;-77
2023/05/16 01:34:29;;;;;;;2.05;1.25;;;;;;;12.31;47.67;91639.94;4951798;28;20045;-76
2023/05/16 01:37:18;;;;;;;1.73;1.10;;;;;;;12.18;48.19;91633.84;4944335;28;20123;-77
2023/05/16 01:39:51;;;;;;;1.63;1.10;;;;;;;12.16;48.40;91633.38;4948087;29;20482;-76
2023/05/16 01:42:20;;;;;;;1.88;1.20;;;;;;;12.19;48.48;91638.00;4952519;28;20461;-76
2023/05/16 01:44:53;;;;;;;1.85;1.20;;;;;;;12.11;47.82;91630.91;4936540;29;20166;-76
2023/05/16 01:47:24;;;;;;;1.70;1.20;;;;;;;11.99;50.08;91630.84;4952792;28;20387;-77
2023/05/16 01:50:01;;;;;;;2.63;1.30;;;;;;;11.98;50.52;91640.56;4946273;29;20031;-76
2023/05/16 01:52:37;;;;;;;2.35;1.30;;;;;;;11.92;50.68;91622.69;4952807;28;20097;-77
2023/05/16 01:55:08;;;;;;;1.83;1.10;;;;;;;11.78;50.91;91628.13;4951974;28;20039;-76
2023/05/16 01:57:35;;;;;;;2.17;1.10;;;;;;;11.84;49.28;91616.34;4951693;28;20502;-77
2023/05/16 02:00:00;;;;;;;2.08;1.23;;;;;;;11.83;50.09;91620.81;4921327;29;20036;-76
2023/05/16 02:02:26;;;;;;;1.92;1.40;;;;;;;11.85;49.57;91629.16;4957546;28;20039;-76
2023/05/16 02:04:51;;;;;;;3.60;1.15;;;;;;;12.03;49.28;91613.38;4952302;28;20488;-76
2023/05/16 02:07:18;;;;;;;2.03;1.10;;;;;;;12.44;46.31;91622.44;4953138;28;20054;-76
2023/05/16 02:09:44;;;;;;;3.90;1.02;;;;;;;12.38;48.20;91613.97;4938465;28;20047;-76
2023/05/16 02:12:09;;;;;;;1.90;1.17;;;;;;;12.27;48.61;91608.31;4951878;28;20042;-77
2023/05/16 02:14:35;;;;;;;2.03;1.20;;;;;;;12.19;48.86;91614.38;4951685;28;20402;-76
2023/05/16 02:17:01;;;;;;;1.35;1.20;;;;;;;12.21;49.37;91614.06;4960176;28;20035;-76
2023/05/16 02:19:26;;;;;;;2.15;1.20;;;;;;;12.12;49.82;91606.25;4952433;28;20031;-77
2023/05/16 02:21:52;;;;;;;3.53;1.40;;;;;;;12.07;49.92;91609.06;4958658;28;20035;-76
2023/05/16 02:24:17;;;;;;;3.35;1.27;;;;;;;12.02;50.14;91606.59;4951400;28;20054;-77
2023/05/16 02:26:43;;;;;;;1.40;1.20;;;;;;;12.09;50.10;91601.59;4958007;28;20077;-77
2023/05/16 02:29:08;;;;;;;2.05;1.30;;;;;;;12.03;50.06;91600.28;4940891;29;20126;-77
2023/05/16 02:31:35;;;;;;;2.75;1.23;;;;;;;12.04;49.41;91594.69;4951372;28;20046;-77
2023/05/16 02:34:01;;;;;;;4.07;1.40;;;;;;;12.04;49.51;91599.16;4921685;29;20034;-76
2023/05/16 02:36:27;;;;;;;1.90;1.25;;;;;;;12.02;49.97;91591.63;4952211;28;20031;-76
2023/05/16 02:38:53;;;;;;;4.03;1.30;;;;;;;11.98;50.22;91595.19;4952275;28;20381;-76
2023/05/16 02:41:21;;;;;;;8.15;1.20;;;;;;;11.91;50.30;91584.41;4952148;28;20230;-76
2023/05/16 02:43:48;;;;;;;2.90;1.40;;;;;;;11.83;51.55;91584.13;4950526;28;20036;-76
2023/05/16 02:46:21;;;;;;;2.50;1.30;;;;;;;11.83;50.88;91589.38;4940957;29;20083;-76
2023/05/16 02:48:46;;;;;;;2.35;1.40;;;;;;;11.88;49.88;91589.22;4951698;28;20050;-76
2023/05/16 02:51:12;;;;;;;4.47;1.30;;;;;;;11.95;50.03;91596.59;4951944;28;20035;-76
2023/05/16 02:53:38;;;;;;;5.60;1.30;;;;;;;12.03;50.18;91587.16;4951516;28;20144;-76
2023/05/16 02:56:05;;;;;;;3.20;1.23;;;;;;;12.01;49.71;91578.84;4951709;28;20650;-76
2023/05/16 02:58:31;;;;;;;6.00;1.50;;;;;;;11.95;50.29;91574.84;4936408;29;20047;-76
2023/05/16 03:00:57;;;;;;;2.30;1.40;;;;;;;11.82;51.10;91574.72;4939578;28;20043;-76
2023/05/16 03:03:23;;;;;;;2.03;1.30;;;;;;;11.69;51.69;91569.69;4939456;29;20043;-76
2023/05/16 03:05:49;;;;;;;2.00;1.30;;;;;;;11.75;50.93;91571.81;4940707;29;20054;-76
2023/05/16 03:08:14;;;;;;;4.47;1.50;;;;;;;11.67;51.63;91572.63;4934734;29;20511;-76
2023/05/16 03:10:40;;;;;;;3.17;1.42;;;;;;;11.70;51.41;91569.38;4952937;29;20074;-76
2023/05/16 03:13:06;;;;;;;2.15;1.30;;;;;;;11.67;51.08;91570.00;4912463;28;20043;-76
2023/05/16 03:15:31;;;;;;;2.13;1.30;;;;;;;11.74;50.77;91567.66;4937233;29;20042;-76
2023/05/16 03:17:57;;;;;;;2.92;1.33;;;;;;;11.80;49.83;91569.03;4938958;28;20049;-76
2023/05/16 03:20:22;;;;;;;2.45;1.25;;;;;;;11.76;50.16;91552.38;4935025;29;20114;-76
2023/05/16 03:22:49;;;;;;;2.55;1.35;;;;;;;11.72;50.52;91561.94;4915036;28;20188;-76
2023/05/16 03:25:14;;;;;;;2.25;1.40;;;;;;;11.70;50.32;91561.50;4951599;28;20054;-76
2023/05/16 03:27:40;;;;;;;2.97;1.25;;;;;;;11.68;49.98;91563.66;4952692;28;20053;-76
2023/05/16 03:30:07;;;;;;;7.13;1.45;;;;;;;11.73;49.89;91557.47;4950461;28;20049;-76
2023/05/16 03:32:33;;;;;;;3.42;1.40;;;;;;;11.70;50.32;91558.88;4951933;28;20035;-76
2023/05/16 03:34:58;;;;;;;2.88;1.40;;;;;;;11.69;49.96;91546.88;4950778;28;20082;-76
2023/05/16 03:37:25;;;;;;;2.38;1.33;;;;;;;11.70;50.34;91552.88;4934961;28;20081;-76
2023/05/16 03:39:50;;;;;;;5.07;1.50;;;;;;;11.68;50.36;91550.56;4950413;28;20057;-76
2023/05/16 03:42:17;;;;;;;2.78;1.20;;;;;;;11.65;51.06;91556.44;4950975;28;20549;-76
2023/05/16 03:44:43;;;;;;;2.25;1.30;;;;;;;11.77;49.46;91553.16;4944340;28;20130;-76
2023/05/16 03:47:09;;;;;;;2.03;1.35;;;;;;;11.67;50.11;91554.28;4947950;29;20055;-76
2023/05/16 03:49:35;;;;;;;2.63;1.20;;;;;;;11.85;49.23;91550.47;4942032;28;20105;-76
2023/05/16 03:52:02;;;;;;;7.57;1.60;;;;;;;11.91;49.12;91552.94;4951228;28;20478;-76
2023/05/16 03:54:28;;;;;;;3.50;1.48;;;;;;;11.78;48.88;91549.44;4950229;28;20082;-76
2023/05/16 03:56:54;;;;;;;4.05;1.20;;;;;;;11.85;48.61;91555.72;4951372;28;20039;-76
2023/05/16 03:59:20;;;;;;;3.33;1.70;;;;;;;11.90;48.53;91551.44;4949814;28;20035;-76
2023/05/16 04:01:46;;;;;;;2.78;1.20;;;;;;;11.83;48.87;91547.41;4956846;28;20106;-76
2023/05/16 04:04:13;;;;;;;1.80;1.40;;;;;;;11.83;49.13;91552.66;4936201;29;20050;-76
2023/05/16 04:06:38;;;;;;;3.15;1.38;;;;;;;11.83;49.13;91552.66;4951519;28;20038;-75
2023/05/16 04:09:08;;;;;;;2.97;1.58;;;;;;;11.83;49.01;91552.66;4925966;28;20119;-76
2023/05/16 04:11:35;;;;;;;1.88;1.30;;;;;;;11.92;48.59;91554.50;4949918;28;20253;-76
2023/05/16 04:14:00;;;;;;;4.63;1.50;;;;;;;11.88;48.51;91552.50;4949337;28;20027;-76
2023/05/16 04:16:26;;;;;;;2.78;1.70;;;;;;;11.85;49.02;91555.72;4954816;28;20101;-77
2023/05/16 04:18:52;;;;;;;3.22;1.42;;;;;;;12.00;48.56;91540.56;4927444;28;20035;-77
2023/05/16 04:21:17;;;;;;;2.33;1.10;;;;;;;12.14;48.70;91538.50;4945839;28;20486;-76
2023/05/16 04:23:43;;;;;;;10.63;1.88;;;;;;;12.12;47.58;91542.53;4947651;28;20062;-76
2023/05/16 04:26:09;;;;;;;2.80;1.52;;;;;;;12.17;47.46;91545.72;4941592;29;20401;-76
2023/05/16 04:28:34;;;;;;;3.75;1.40;;;;;;;12.34;47.38;91529.09;4957199;28;20027;-76
2023/05/16 04:31:00;;;;;;;3.10;1.38;;;;;;;12.29;48.37;91526.66;4950529;28;20112;-76
2023/05/16 04:33:26;;;;;;;2.28;1.30;;;;;;;12.34;47.31;91523.84;4954146;28;20035;-76
2023/05/16 04:35:53;;;;;;;2.10;1.35;;;;;;;12.25;48.08;91529.16;4948744;28;20664;-76
2023/05/16 04:38:19;;;;;;;2.13;1.40;;;;;;;12.28;47.44;91517.25;4949819;28;20035;-76
2023/05/16 04:40:45;;;;;;;2.78;1.60;;;;;;;12.27;48.00;91518.31;4945920;28;20031;-76
2023/05/16 04:43:11;;;;;;;2.17;1.30;;;;;;;12.40;47.77;91511.28;4933724;28;20050;-76
2023/05/16 04:45:36;;;;;;;5.05;1.40;;;;;;;12.36;47.54;91520.88;4928371;28;20455;-76
2023/05/16 04:48:02;;;;;;;3.85;1.60;;;;;;;12.41;48.16;91507.59;4948662;28;20051;-76
2023/05/16 04:50:28;;;;;;;2.17;1.40;;;;;;;12.36;48.20;91505.16;4933876;29;20035;-76
2023/05/16 04:52:54;;;;;;;2.33;1.30;;;;;;;12.38;47.36;91514.22;4949915;28;20031;-77
2023/05/16 04:55:19;;;;;;;4.10;1.38;;;;;;;12.48;47.14;91511.22;4953738;28;20777;-77
2023/05/16 04:57:45;;;;;;;4.70;1.35;;;;;;;12.51;47.88;91517.69;4951308;28;20038;-76
2023/05/16 05:00:12;;;;;;;1.92;1.23;;;;;;;12.52;46.79;91495.63;4951525;28;20039;-78
2023/05/16 05:02:38;;;;;;;3.75;1.58;;;;;;;12.61;47.34;91517.31;4942321;28;20485;-78
2023/05/16 05:05:04;;;;;;;3.97;1.50;;;;;;;12.62;47.26;91507.56;4938919;28;20039;-77
2023/05/16 05:07:31;;;;;;;2.40;1.40;;;;;;;12.53;47.56;91528.66;4950717;29;20065;-77
2023/05/16 05:09:56;;;;;;;1.13;1.00;;;;;;;12.71;47.98;91511.66;4950775;28;20089;-77
2023/05/16 05:12:22;;;;;;;1.80;1.20;;;;;;;12.74;47.27;91509.47;4951161;28;20047;-77
2023/05/16 05:14:48;;;;;;;3.80;1.38;;;;;;;12.73;47.17;91519.22;4937804;29;20031;-77
2023/05/16 05:17:15;;;;;;;3.35;1.40;;;;;;;12.71;48.37;91519.53;4951434;28;20051;-77
2023/05/16 05:19:41;;;;;;;1.98;1.27;;;;;;;12.91;46.63;91514.59;4952203;28;20046;-78
2023/05/16 05:22:06;;;;;;;2.90;1.50;;;;;;;12.84;46.85;91515.09;4951805;29;20027;-78
2023/05/16 05:24:32;;;;;;;2.72;1.77;;;;;;;12.90;45.98;91516.44;4922003;29;20159;-77
2023/05/16 05:26:57;;;;;;;2.33;1.45;;;;;;;13.04;47.68;91508.28;4938334;29;20027;-78
2023/05/16 05:29:23;;;;;;;2.97;1.35;;;;;;;13.06;47.02;91506.09;4952157;28;20039;-77
2023/05/16 05:31:48;;;;;;;2.65;1.50;;;;;;;13.03;46.24;91501.47;4949159;28;20405;-77
2023/05/16 05:34:14;;;;;;;5.90;1.30;;;;;;;13.18;46.60;91523.75;4949587;28;20087;-76
2023/05/16 05:36:40;;;;;;;2.75;1.38;;;;;;;13.24;47.63;91516.41;4951151;28;20031;-77
2023/05/16 05:39:05;;;;;;;1.92;1.42;;;;;;;13.23;47.05;91514.88;4953765;28;20035;-77
2023/05/16 05:41:31;;;;;;;2.13;1.25;;;;;;;13.29;48.19;91513.63;4953304;28;20046;-76
2023/05/16 05:43:57;;;;;;;1.63;1.20;;;;;;;13.33;47.01;91512.63;4954652;28;20039;-77
2023/05/16 05:46:23;;;;;;;1.63;1.25;;;;;;;13.46;46.19;91507.38;4952732;29;20035;-76
2023/05/16 05:48:49;;;;;;;2.35;1.40;;;;;;;13.47;47.25;91501.81;4953722;29;20138;-76
2023/05/16 05:51:16;;;;;;;2.72;1.42;;;;;;;13.58;46.13;91499.53;4952815;29;20133;-77
2023/05/16 05:53:42;;;;;;;2.47;1.40;;;;;;;13.85;46.26;91506.00;4954498;28;20561;-76
2023/05/16 05:56:08;;;;;;;1.95;1.30;;;;;;;14.04;45.62;91502.03;4919760;29;20130;-77
2023/05/16 05:58:35;;;;;;;4.22;1.33;;;;;;;14.26;46.41;91490.28;4952942;29;20067;-77
2023/05/16 06:01:01;;;;;;;2.40;1.30;;;;;;;14.43;45.55;91499.75;4954268;29;20027;-76
2023/05/16 06:03:27;;;;;;;4.10;1.40;;;;;;;14.60;45.27;91483.72;4952681;28;20063;-77
2023/05/16 06:05:52;;;;;;;1.67;1.17;;;;;;;14.81;45.10;91482.78;4953135;29;20063;-77
2023/05/16 06:08:18;;;;;;;2.40;1.25;;;;;;;15.33;41.65;91476.56;4936479;29;20493;-77
2023/05/16 06:10:43;;;;;;;2.35;1.30;;;;;;;15.98;42.42;91490.19;4954066;29;20050;-76
2023/05/16 06:13:09;;;;;;;5.30;1.67;;;;;;;16.65;43.24;91487.44;4954413;28;20043;-77
2023/05/16 06:15:35;;;;;;;2.97;1.30;;;;;;;16.91;39.86;91477.38;4954674;29;20043;-77
2023/05/16 06:18:00;;;;;;;1.83;1.20;;;;;;;17.34;37.98;91470.22;4937357;29;20042;-77
2023/05/16 06:20:26;;;;;;;2.88;1.50;;;;;;;17.51;38.52;91469.00;4936586;29;20062;-77
2023/05/16 06:22:51;;;;;;;3.92;1.40;;;;;;;18.06;35.85;91472.16;4952034;28;20093;-77
2023/05/16 06:25:17;;;;;;;2.25;1.15;;;;;;;18.12;35.66;91481.28;4954402;29;20035;-76
2023/05/16 06:27:42;;;;;;;2.95;1.30;;;;;;;18.40;35.27;91459.75;4953708;29;20034;-77
2023/05/16 06:30:08;;;;;;;2.47;1.38;;;;;;;18.30;36.44;91460.34;4952985;29;20074;-77
2023/05/16 06:32:34;;;;;;;3.42;1.50;;;;;;;18.39;38.02;91473.34;4953542;29;20552;-77
2023/05/16 06:34:59;;;;;;;5.05;1.17;;;;;;;18.34;35.79;91461.16;4953259;28;20039;-77
2023/05/16 06:37:25;;;;;;;4.22;1.50;;;;;;;17.65;36.81;91462.06;4936506;29;20043;-77
2023/05/16 06:39:50;;;;;;;2.30;1.40;;;;;;;17.63;38.22;91460.84;4952522;29;20031;-77
2023/05/16 06:42:16;;;;;;;2.53;1.40;;;;;;;17.48;36.21;91465.94;4953377;29;20125;-77
2023/05/16 06:44:42;;;;;;;2.95;1.35;;;;;;;17.47;39.31;91461.78;4952844;28;20035;-77
2023/05/16 06:47:07;;;;;;;2.17;1.38;;;;;;;17.26;38.54;91464.81;4951853;29;20482;-77
2023/05/16 06:49:33;;;;;;;2.65;1.35;;;;;;;16.92;37.33;91465.72;4952628;29;20037;-77
2023/05/16 06:51:58;;;;;;;2.63;1.40;;;;;;;16.45;39.05;91473.44;4953990;29;20066;-77
2023/05/16 06:54:24;;;;;;;3.10;1.38;;;;;;;16.40;39.42;91455.25;4953872;28;20457;-77
2023/05/16 06:56:50;;;;;;;2.67;1.50;;;;;;;16.42;39.50;91460.94;4952419;29;20556;-77
2023/05/16 06:59:15;;;;;;;3.75;1.40;;;;;;;16.45;41.44;91476.09;4952769;29;20043;-77
2023/05/16 07:01:41;;;;;;;2.50;1.50;;;;;;;16.22;39.33;91462.78;4952916;29;20082;-77
2023/05/16 07:04:07;;;;;;;3.08;1.52;;;;;;;16.19;41.40;91468.03;4935929;29;20122;-77
2023/05/16 07:06:32;;;;;;;4.65;1.50;;;;;;;16.12;40.16;91475.75;4951909;29;20712;-77
2023/05/16 07:08:58;;;;;;;2.60;1.50;;;;;;;16.26;41.30;91477.94;4952997;29;20031;-77
2023/05/16 07:11:23;;;;;;;2.50;1.30;;;;;;;16.22;40.93;91472.59;4952748;29;20039;-77
2023/05/16 07:13:49;;;;;;;2.70;1.50;;;;;;;16.15;41.63;91473.22;4935828;29;20035;-76
2023/05/16 07:16:15;;;;;;;2.15;1.40;;;;;;;15.87;42.42;91473.34;4952695;29;20035;-77
2023/05/16 07:18:40;;;;;;;4.65;1.52;;;;;;;15.71;43.44;91472.59;4953253;29;20367;-77
2023/05/16 07:21:06;;;;;;;3.47;1.35;;;;;;;15.66;40.51;91452.50;4919091;29;20486;-77
2023/05/16 07:23:31;;;;;;;2.85;1.50;;;;;;;15.65;42.21;91469.44;4952820;28;20485;-77
2023/05/16 07:25:58;;;;;;;2.20;1.30;;;;;;;15.71;39.37;91475.22;4952757;29;20030;-77
2023/05/16 07:28:24;;;;;;;2.35;1.40;;;;;;;15.57;41.54;91473.00;4952905;29;20035;-77
2023/05/16 07:30:49;;;;;;;3.10;1.60;;;;;;;15.75;42.32;91468.94;4935506;29;20553;-77
2023/05/16 07:33:15;;;;;;;2.28;1.30;;;;;;;15.95;39.92;91459.19;4951300;28;20598;-77
2023/05/16 07:35:40;;;;;;;2.20;1.40;;;;;;;15.99;39.48;91460.06;4953127;29;20626;-77
2023/05/16 07:38:06;;;;;;;2.53;1.50;;;;;;;16.13;40.46;91461.47;4935629;29;20031;-77
2023/05/16 07:40:32;;;;;;;5.10;1.95;;;;;;;16.39;39.26;91464.28;4952525;29;20039;-77
2023/05/16 07:42:58;;;;;;;2.78;1.42;;;;;;;16.58;39.51;91457.47;4952244;28;20050;-77
2023/05/16 07:45:23;;;;;;;2.60;1.50;;;;;;;16.73;37.81;91447.94;4950903;29;20530;-76
2023/05/16 07:47:49;;;;;;;3.53;1.63;;;;;;;16.82;40.08;91449.31;4952332;29;20036;-77
2023/05/16 07:50:15;;;;;;;3.42;1.88;;;;;;;16.80;39.13;91448.13;4952289;29;20075;-77
2023/05/16 07:52:40;;;;;;;3.03;1.42;;;;;;;16.48;41.56;91464.06;4952244;28;20437;-77
2023/05/16 07:55:07;;;;;;;2.85;1.55;;;;;;;16.75;40.55;91462.34;4952491;29;20069;-77
2023/05/16 07:57:32;;;;;;;4.55;1.42;;;;;;;16.96;39.64;91472.59;4950973;29;20043;-77
2023/05/16 07:59:58;;;;;;;2.58;1.58;;;;;;;17.30;38.65;91458.81;4951196;29;20532;-77
2023/05/16 08:02:25;;;;;;;2.47;1.58;;;;;;;17.16;38.10;91469.94;4935237;29;20043;-77
2023/05/16 08:04:50;;;;;;;3.05;1.55;;;;;;;17.42;40.00;91462.03;4934802;29;20046;-77
2023/05/16 08:07:16;;;;;;;3.05;1.70;;;;;;;17.49;38.34;91456.09;4950615;29;20039;-77
2023/05/16 08:09:42;;;;;;;4.30;1.85;;;;;;;17.46;41.42;91470.06;4952322;29;20114;-77
2023/05/16 08:12:08;;;;;;;2.83;1.50;;;;;;;17.41;38.34;91467.72;4952361;29;20556;-77
2023/05/16 08:14:33;;;;;;;3.50;1.70;;;;;;;17.53;39.76;91464.88;4950808;29;20087;-77
2023/05/16 08:16:59;;;;;;;2.75;1.63;;;;;;;17.65;38.97;91462.06;4934804;29;20035;-77
2023/05/16 08:19:25;;;;;;;3.75;1.63;;;;;;;17.65;38.74;91475.28;4952512;29;20039;-77
2023/05/16 08:21:51;;;;;;;3.22;1.60;;;;;;;17.61;37.56;91471.81;4950725;29;20556;-77
2023/05/16 08:24:16;;;;;;;3.80;1.90;;;;;;;17.65;36.42;91464.69;4951925;28;20035;-77
2023/05/16 08:26:42;;;;;;;2.20;1.33;;;;;;;17.90;38.41;91469.66;4952039;29;20024;-77
2023/05/16 08:29:08;;;;;;;6.35;1.80;;;;;;;18.04;37.03;91472.50;4952107;29;20516;-77
2023/05/16 08:31:33;;;;;;;6.25;1.58;;;;;;;17.96;34.22;91478.78;4936164;29;20409;-77
2023/05/16 08:34:00;;;;;;;2.78;1.60;;;;;;;17.82;36.95;91479.34;4956081;28;20035;-77
2023/05/16 08:36:27;;;;;;;3.10;1.60;;;;;;;17.82;36.43;91474.06;4938414;29;20094;-77
2023/05/16 08:38:53;;;;;;;2.13;1.35;;;;;;;17.77;36.81;91470.94;4954713;29;20493;-77
2023/05/16 08:41:20;;;;;;;2.55;1.50;;;;;;;17.85;35.54;91488.47;4954902;29;20047;-77
2023/05/16 08:43:46;;;;;;;7.03;1.50;;;;;;;17.74;35.45;91487.50;4954370;28;20501;-77
2023/05/16 08:46:12;;;;;;;2.58;1.50;;;;;;;17.77;35.46;91481.50;4954662;29;20046;-77
2023/05/16 08:48:39;;;;;;;3.33;1.60;;;;;;;17.86;35.75;91493.41;4955386;29;20035;-77
2023/05/16 08:51:08;;;;;;;3.03;1.40;;;;;;;17.98;34.79;91492.44;4953095;29;20031;-77
2023/05/16 08:53:40;;;;;;;3.45;1.70;;;;;;;18.00;34.92;91506.09;4956498;28;20043;-77
2023/05/16 08:56:07;;;;;;;4.47;1.60;;;;;;;18.03;36.24;91494.78;4955568;29;20060;-76
2023/05/16 08:58:33;;;;;;;2.65;1.40;;;;;;;17.96;33.91;91489.38;4955099;29;20062;-77
2023/05/16 09:00:58;;;;;;;3.00;1.35;;;;;;;17.98;35.16;91507.56;4954366;29;20506;-77
2023/05/16 09:03:24;;;;;;;5.30;1.60;;;;;;;18.00;35.18;91500.78;4955350;28;20039;-77
2023/05/16 09:05:51;;;;;;;2.70;1.40;;;;;;;18.13;35.42;91497.97;4955844;29;20031;-77
2023/05/16 09:08:17;;;;;;;2.85;1.40;;;;;;;18.27;35.66;91503.47;4955124;29;20049;-77
2023/05/16 09:10:42;;;;;;;2.42;1.50;;;;;;;18.45;35.05;91493.09;4955926;29;20401;-77
2023/05/16 09:13:08;;;;;;;4.80;1.30;;;;;;;18.46;34.51;91500.72;4953536;28;20066;-77
2023/05/16 09:15:33;;;;;;;3.10;1.38;;;;;;;18.40;35.65;91488.13;4955461;29;20043;-77
2023/05/16 09:18:00;;;;;;;2.47;1.50;;;;;;;18.44;35.32;91492.34;4954779;29;20115;-77
2023/05/16 09:20:25;;;;;;;2.13;1.45;;;;;;;18.42;34.47;91499.13;4955201;29;20031;-77
2023/05/16 09:22:53;;;;;;;2.33;1.40;;;;;;;18.43;34.92;91500.66;4955407;28;20130;-77
2023/05/16 09:25:20;;;;;;;2.47;1.40;;;;;;;18.59;33.86;91497.81;4955579;29;20070;-77
2023/05/16 09:27:47;;;;;;;3.00;1.30;;;;;;;18.59;33.97;91495.94;4954975;29;20034;-77
2023/05/16 09:30:20;;;;;;;2.47;1.40;;;;;;;18.58;34.73;91504.25;4953405;29;20316;-77
2023/05/16 09:32:45;;;;;;;2.60;1.27;;;;;;;18.57;34.67;91497.41;4953193;28;20094;-77
2023/05/16 09:35:16;;;;;;;2.45;1.42;;;;;;;18.40;35.44;91504.78;4954791;29;20050;-77
2023/05/16 09:37:48;;;;;;;1.83;1.20;;;;;;;18.28;33.55;91504.97;4937629;29;20043;-77
2023/05/16 09:40:14;;;;;;;2.10;1.30;;;;;;;18.41;33.70;91519.53;4954975;29;20046;-77
2023/05/16 09:42:42;;;;;;;2.58;1.30;;;;;;;18.12;34.71;91520.25;4921138;28;20086;-77
2023/05/16 09:45:12;;;;;;;2.30;1.30;;;;;;;18.02;34.51;91514.44;4954155;29;20101;-77
2023/05/16 09:47:45;;;;;;;2.22;1.13;;;;;;;17.97;35.52;91512.09;4937201;29;20035;-77
2023/05/16 09:50:14;;;;;;;2.10;1.50;;;;;;;17.75;35.57;91508.31;4954417;29;20564;-77
2023/05/16 09:52:41;;;;;;;2.30;1.40;;;;;;;17.62;36.19;91507.72;4954538;28;20058;-77
2023/05/16 09:55:08;;;;;;;2.75;1.60;;;;;;;17.53;36.15;91509.84;4954510;29;20043;-77
2023/05/16 09:57:39;;;;;;;2.47;1.40;;;;;;;17.47;35.80;91516.53;4953508;29;20043;-77
2023/05/16 10:00:12;;;;;;;2.20;1.30;;;;;;;17.52;35.49;91515.47;4954443;29;20031;-77
2023/05/16 10:02:40;;;;;;;2.58;1.60;;;;;;;17.38;36.38;91505.44;4954244;28;20126;-77
2023/05/16 10:05:06;;;;;;;2.50;1.70;;;;;;;17.39;36.61;91509.63;4956311;29;20042;-76
2023/05/16 10:07:33;;;;;;;3.58;1.50;;;;;;;17.14;37.64;91504.63;4953934;29;20504;-77
2023/05/16 10:10:04;;;;;;;3.30;1.50;;;;;;;17.32;37.75;91506.84;4937119;29;20054;-77
2023/05/16 10:12:32;;;;;;;2.58;1.40;;;;;;;17.41;36.67;91507.38;4954211;29;20074;-77
2023/05/16 10:15:03;;;;;;;2.78;1.40;;;;;;;17.43;36.01;91507.81;4953941;28;20034;-77
2023/05/16 10:17:35;;;;;;;2.55;1.50;;;;;;;17.58;36.37;91512.19;4954466;29;20382;-77
2023/05/16 10:20:05;;;;;;;2.50;1.50;;;;;;;17.46;38.36;91517.66;4938323;29;20445;-77
2023/05/16 10:22:35;;;;;;;3.03;1.48;;;;;;;17.60;36.96;91509.97;4955456;29;20038;-77
2023/05/16 10:25:22;;;;;;;6.25;1.60;;;;;;;17.47;36.65;91517.31;4954047;28;20062;-77
2023/05/16 10:27:49;;;;;;;4.43;1.55;;;;;;;17.28;39.02;91518.09;4955359;29;20351;-77
2023/05/16 10:30:17;;;;;;;2.72;1.42;;;;;;;17.47;39.15;91514.69;4953820;29;20039;-77
2023/05/16 10:32:45;;;;;;;3.20;1.60;;;;;;;17.45;40.09;91510.84;4953903;28;20478;-77
2023/05/16 10:35:11;;;;;;;2.25;1.48;;;;;;;17.66;41.51;91516.50;4953397;29;20045;-77
2023/05/16 10:37:37;;;;;;;4.03;1.33;;;;;;;17.78;38.25;91504.97;4953467;29;20501;-77
2023/05/16 10:40:04;;;;;;;2.55;1.40;;;;;;;18.00;40.08;91511.38;4953502;29;20062;-77
2023/05/16 10:42:33;;;;;;;2.78;1.50;;;;;;;18.22;37.82;91509.06;4953784;29;20066;-77
2023/05/16 10:45:17;;;;;;;2.83;1.25;;;;;;;17.96;37.09;91515.84;4920753;29;20130;-77
2023/05/16 10:47:53;;;;;;;2.70;1.42;;;;;;;17.75;39.59;91505.69;4953640;29;20043;-76
2023/05/16 10:50:40;;;;;;;4.07;1.38;;;;;;;17.83;38.37;91510.00;4944332;29;20043;-77
2023/05/16 10:53:18;;;;;;;2.40;1.40;;;;;;;17.85;37.40;91512.28;4936079;29;20074;-76
2023/05/16 10:55:48;;;;;;;2.10;1.40;;;;;;;17.63;38.34;91514.56;4948180;29;20513;-77
2023/05/16 10:58:23;;;;;;;2.22;1.40;;;;;;;17.53;38.21;91519.66;4936185;29;20046;-77
2023/05/16 11:00:48;;;;;;;3.17;1.30;;;;;;;17.45;37.66;91524.84;4952781;29;20035;-76
2023/05/16 11:03:27;;;;;;;2.90;1.40;;;;;;;17.44;39.65;91525.19;4953388;28;20045;-77
2023/05/16 11:05:53;;;;;;;2.47;1.20;;;;;;;17.51;38.18;91525.31;4952961;29;20383;-77
2023/05/16 11:08:18;;;;;;;1.55;1.10;;;;;;;17.18;37.15;91526.63;4951702;29;20051;-77
2023/05/16 11:10:44;;;;;;;4.57;1.27;;;;;;;17.09;37.07;91531.38;4952356;29;20039;-77
2023/05/16 11:13:10;;;;;;;1.75;1.13;;;;;;;17.18;38.45;91524.00;4952965;28;20119;-77
2023/05/16 11:15:35;;;;;;;4.35;1.40;;;;;;;17.21;38.51;91525.16;4935954;29;20039;-77
2023/05/16 11:18:14;;;;;;;2.40;1.10;;;;;;;17.27;38.62;91531.69;4920009;29;20039;-77
2023/05/16 11:20:41;;;;;;;6.85;1.20;;;;;;;17.20;39.22;91526.25;4951810;29;20042;-76
2023/05/16 11:23:15;;;;;;;1.90;1.17;;;;;;;17.37;38.63;91525.06;4951549;28;20035;-77
2023/05/16 11:25:44;;;;;;;3.45;1.30;;;;;;;17.02;38.85;91542.56;4953180;29;20027;-77
2023/05/16 11:28:12;;;;;;;5.47;1.20;;;;;;;17.10;39.81;91542.72;4952689;29;20504;-77
2023/05/16 11:30:43;;;;;;;1.63;1.10;;;;;;;17.01;38.70;91542.91;4952398;29;20032;-77
2023/05/16 11:33:09;;;;;;;2.60;1.30;;;;;;;16.84;40.49;91544.06;4951578;28;20035;-76